SPJR Airport Information

Runway Information
Runway 16 Length 8201 ft width 148 ft
Elevation 8848 ft Threshold 0 ft Heading 158
Runway 34 Length 8201 ft Width 148 ft
Elevation 8758 ft Threshold 0 ft Heading 338
Airport Frequencies
Type TWR Name CAJAMARCA Frequency 118.1 MHZ
Airport Navaids
Type NDB Name Cajamarca Frequency 300 KHZ
Airport Weather Information & NOTAM
ADDS - METARS form results

(1714 UTC 13 July 2020)
Data provider http://aviationweather.gov/metar/data/
 
METAR text: SPJR 131700Z VRB05KT 9999 SCT023 SCT043 20/08 Q1028 RMK PP000
Conditions at: SPJR (CAJAMARCA/REVORE, PE) observed 1700 UTC 13 July 2020
Temperature: 20.0°C (68°F)
Dewpoint: 8.0°C (46°F) [RH = 46%]
Pressure (altimeter): 30.35 inches Hg (1028.0 mb)
Winds: variable direction winds at 6 MPH (5 knots; 2.6 m/s)
Visibility: 6 or more miles (10+ km)
Ceiling: at least 12,000 feet AGL
Clouds: scattered clouds at 2300 feet AGL
scattered clouds at 4300 feet AGL
Weather: no significant weather observed at this time

METAR text: SPJR 131630Z 22004KT 170V330 9999 FEW023 SCT043 19/08 Q1029
Conditions at: SPJR (CAJAMARCA/REVORE, PE) observed 1630 UTC 13 July 2020
Temperature: 19.0°C (66°F)
Dewpoint: 8.0°C (46°F) [RH = 49%]
Pressure (altimeter): 30.38 inches Hg (1029.0 mb)
Winds: from the SW (220 degrees) at 5 MPH (4 knots; 2.1 m/s)
Visibility: 6 or more miles (10+ km)
Ceiling: at least 12,000 feet AGL
Clouds: few clouds at 2300 feet AGL
scattered clouds at 4300 feet AGL
Weather: no significant weather observed at this time

Forecast for: SPJR (CAJAMARCA/REVORE, PE)
Text: SPJR 131100Z 1312/1412 VRB02KT 9999 SCT023 TX22/1319Z TN05/1411Z
Forecast period: 1200 to 1700 UTC 13 July 2020
Forecast type: FROM: standard forecast or significant change
Winds: variable direction winds at 2 MPH (2 knots; 1.0 m/s)
Visibility: 6 or more miles 10+ km)
Ceiling: at least 12,000 feet AGL
Clouds: scattered clouds at 2300 feet AGL
Weather: no significant weather forecast for this period
Text: BECMG 1317/1319 18006KT FEW020 BKN043
Forecast period: 1700 UTC 13 July 2020 to 0000 UTC 14 July 2020
Forecast type: BECOMING: Conditions expected to become as follows by 1900 UTC 13 July 2020
Winds: from the S (180 degrees) at 7 MPH (6 knots; 3.1 m/s)
Visibility: 6 or more miles 10+ km)
Ceiling: 4300 feet AGL
Clouds: few clouds at 2000 feet AGL
broken clouds at 4300 feet AGL
Weather: no significant weather forecast for this period
Text: FM140000 VRB02KT 9999 SCT020
Forecast period: 0000 to 1200 UTC 14 July 2020
Forecast type: FROM: standard forecast or significant change
Winds: variable direction winds at 2 MPH (2 knots; 1.0 m/s)
Visibility: 6 or more miles 10+ km)
Ceiling: at least 12,000 feet AGL
Clouds: scattered clouds at 2000 feet AGL
Weather: no significant weather forecast for this period